DFW weather

Dallas Fort Worth International Airport
Dallas-Fort Worth, Texas, United States

Public forecast

Using degrees Fahrenheit for public forecast. Weather courtesy of forecast.io.

Current aviation weather report (METAR) for Dallas Fort Worth International Airport

Retrieved 2020/01/23 10:32 UTC (1 minute ago):

KDFW 231032Z 02005KT 1/4SM R17C/P6000FT -DZ BR OVC002 08/08 A2989 RMK AO2 SFC VIS 2 P0002 T00780078

Aviation forecast (TAF) for Dallas Fort Worth International Airport

Forecast is more than 6 hours old.

Retrieved 2020-01-23 00:42 UTC (10 hours ago):

TAF KDFW 222339Z 2300/2406 14010KT 6SM BR OVC007 FM230300 13008KT 1 1/2SM BR OVC003 FM230600 13007KT 1/2SM FG VCTS OVC002CB TEMPO 2306/2309 1/4SM -SHRA FG VV001 FM231100 35004KT 3/4SM BR VCSH OVC002 FM231400 34007KT 1 1/2SM BR OVC005 FM231900 34010KT P6SM BKN023 FM232100 34010KT P6SM SCT180